Details From KACV - Arcata
To KAST - Astoria Rgnl
Flight Number -
Tags Generated
Created
Modified
Stats Distance 312 nm / 578 km
Max Altitude 0 ft / 0 m
Waypoints 3
Social Downloads 2
Likes 0
Share VATSIM

Download

Looking for another format? Having issues loading an existing format? Contact us
Advertisement - Login to hide

Notes

Generated

Route

KACV KULOA KAST

ID Type Via Altitude Latitude Longitude Leg Dist Tot Dist Heading (true) Name
O KACV APT - 0 ft / 0 m 40.97246˚ -124.11292˚ - 0 nm - -
KULOA FIX - 0 ft / 0 m 45.98350˚ -123.90114˚ 301 nm 301 nm 2° / 2° -
O KAST APT - 0 ft / 0 m 46.16285˚ -123.88346˚ 10 nm 311 nm 4° / 4° Astoria Rgnl

Altitude Profile

Advertisement - Login to hide

Weather


0- 5 10 15 20 25 30 35+ Temperature / ° C

Clouds and Precipitation
Forecast for 2017-12-13 18:00 UTC. Updated 2 hours ago

Ground ~20,000 ft ~40,000 ft Winds

KACV

Details ICAO KACV (ACV)
Name Arcata
Region United States
Timezone America/Los_Angeles (UTC-8.0)
Stats Elevation 221 ft / 67 m (AMSL)
Location 40.978077° -124.108638°
Runways 2
Magnetic Variation 14.460° E

METAR

KACV 131853Z AUTO 29003KT 9SM CLR 13/04 A3020 RMK AO2 SLP231 T01280039

Decode

TAF

TAF KACV 131720Z 1318/1418 08003KT 6SM BR SCT250 FM132000 29004KT 6SM HZ SKC FM140200 VRB03KT 6SM BR FEW005 FM140800 08003KT 6SM BR SCT003

Decode

Departure Runways

ID Width Length Bearing (true) Bearing (mag) Surface Threshold Offset Overrun Length
01 151 ft / 46 m 4,501 ft / 1,372 m 29.65° 15.19° Asphalt 0 ft / 0 m 0 ft / 0 m
14 151 ft / 46 m 6,005 ft / 1,830 m 152.84° 138.38° Asphalt 787 ft / 240 m 223 ft / 68 m
19 151 ft / 46 m 4,501 ft / 1,372 m 209.65° 195.19° Asphalt 0 ft / 0 m 0 ft / 0 m
32 151 ft / 46 m 6,005 ft / 1,830 m 332.84° 318.38° Asphalt 0 ft / 0 m 0 ft / 0 m

KAST

Details ICAO KAST (AST)
Name Astoria Rgnl
Region United States
Timezone America/Los_Angeles (UTC-8.0)
Stats Elevation 15 ft / 5 m (AMSL)
Location 46.157894° -123.878724°
Runways 2
Magnetic Variation 15.636° E

METAR

KAST 131855Z AUTO 10007KT 10SM CLR 09/02 A3036 RMK AO2 SLP279 T00890022

Decode

TAF

TAF KAST 131720Z 1318/1418 VRB04KT P6SM -SN SCT250 FM132200 VRB03KT P6SM SCT250 FM140700 08004KT 6SM BR SKC FM141500 10004KT 1/2SM FG SKC

Decode

Destination Runways

ID Width Length Bearing (true) Bearing (mag) Surface Threshold Offset Overrun Length
08 98 ft / 30 m 5,779 ft / 1,762 m 95.49° 79.85° Asphalt 302 ft / 92 m 0 ft / 0 m
13 98 ft / 30 m 4,997 ft / 1,523 m 153.70° 138.06° Asphalt 328 ft / 100 m 0 ft / 0 m
26 98 ft / 30 m 5,779 ft / 1,762 m 275.51° 259.87° Asphalt 705 ft / 215 m 0 ft / 0 m
31 98 ft / 30 m 4,997 ft / 1,523 m 333.70° 318.06° Asphalt 203 ft / 62 m 0 ft / 0 m

Approach Navaids

Runway Type Ident Frequency Range Bearing (true) Bearing (mag) Slope Elevation
26 Localiser IAST 109.50 MHz 18 nm / 33 km 275.50° 259.86° - 15 ft / 5 m (AMSL)
26 Glidescope IAST 109.50 MHz 10 nm / 19 km 275.50° 259.86° 3.00° 15 ft / 5 m (AMSL)